createdAt,value
2023-01-29T00:33:18.131Z,172.63
2023-01-29T00:34:18.097Z,170.96
2023-01-29T00:35:18.085Z,169.30
2023-01-29T00:36:18.076Z,170.85
2023-01-29T00:38:18.033Z,168.55
2023-01-29T00:39:17.979Z,170.06
2023-01-29T00:40:18.208Z,167.90
2023-01-29T00:41:17.931Z,169.16
2023-01-29T00:42:17.961Z,168.38
2023-01-29T00:43:17.911Z,169.15
2023-01-29T00:44:17.896Z,170.51
2023-01-29T00:45:17.878Z,167.19
2023-01-29T00:46:17.894Z,169.48
2023-01-29T00:47:17.871Z,169.94
2023-01-29T00:48:17.821Z,169.10
2023-01-29T00:49:17.803Z,171.94
2023-01-29T00:50:18.359Z,166.94
2023-01-29T00:51:17.778Z,168.63
2023-01-29T00:52:17.753Z,171.88
2023-01-29T00:53:17.731Z,169.46
2023-01-29T00:54:17.742Z,169.78
2023-01-29T00:55:17.680Z,171.18
2023-01-29T00:56:17.690Z,169.65
2023-01-29T00:57:17.649Z,167.68
2023-01-29T00:58:17.629Z,171.38
2023-01-29T00:59:17.597Z,170.51
2023-01-29T01:00:17.926Z,169.31
2023-01-29T01:01:17.604Z,168.78
2023-01-29T01:02:17.600Z,170.99
2023-01-29T01:03:17.527Z,169.55
2023-01-29T01:04:17.547Z,169.30
2023-01-29T01:05:17.487Z,171.49
2023-01-29T01:06:17.463Z,167.74
2023-01-29T01:07:17.510Z,169.69
2023-01-29T01:08:17.435Z,172.43
2023-01-29T01:09:17.441Z,169.89
2023-01-29T01:10:17.832Z,168.92
2023-01-29T01:11:17.403Z,168.53
2023-01-29T01:12:17.396Z,170.33
2023-01-29T01:13:17.361Z,168.93
2023-01-29T01:14:17.375Z,170.81
2023-01-29T01:15:17.384Z,171.69
2023-01-29T01:16:17.364Z,169.91
2023-01-29T01:17:17.349Z,171.55
2023-01-29T01:18:17.313Z,168.74
2023-01-29T01:19:17.294Z,169.55
2023-01-29T01:20:17.701Z,169.50
2023-01-29T01:21:17.226Z,170.69
2023-01-29T01:22:17.231Z,169.23
2023-01-29T01:23:17.206Z,169.83
2023-01-29T01:24:17.274Z,170.28
2023-01-29T01:25:17.189Z,172.55
2023-01-29T01:26:17.180Z,170.94
2023-01-29T01:27:17.150Z,171.13
2023-01-29T01:28:17.146Z,172.22
2023-01-29T01:29:17.179Z,170.80
2023-01-29T01:30:17.524Z,168.38
2023-01-29T01:31:17.137Z,167.98
2023-01-29T01:32:17.135Z,170.20
2023-01-29T01:33:17.039Z,171.67
2023-01-29T01:34:16.994Z,171.67
2023-01-29T01:35:16.973Z,170.89
2023-01-29T01:37:16.931Z,167.92
2023-01-29T01:38:16.933Z,168.18
2023-01-29T01:39:16.902Z,168.88
2023-01-29T01:40:17.132Z,168.89
2023-01-29T01:41:16.868Z,168.21
2023-01-29T01:42:16.849Z,168.74
2023-01-29T01:43:16.859Z,168.54
2023-01-29T01:44:16.814Z,169.88
2023-01-29T01:45:16.809Z,169.99
2023-01-29T01:46:16.807Z,170.41
2023-01-29T01:47:16.773Z,170.61
2023-01-29T01:48:16.769Z,170.82
2023-01-29T01:49:16.770Z,171.01
2023-01-29T01:50:16.951Z,171.23
2023-01-29T01:51:16.708Z,170.56
2023-01-29T01:52:16.683Z,170.88
2023-01-29T01:53:16.676Z,170.64
2023-01-29T01:54:16.686Z,170.93
2023-01-29T01:55:16.639Z,172.27
2023-01-29T01:56:16.644Z,168.41
2023-01-29T01:57:16.611Z,165.99
2023-01-29T01:58:16.629Z,170.83
2023-01-29T01:59:16.585Z,171.08
2023-01-29T02:00:16.819Z,168.71
2023-01-29T02:01:16.564Z,170.76
2023-01-29T02:02:16.586Z,168.51
2023-01-29T02:03:16.517Z,170.29
2023-01-29T02:04:16.486Z,172.37
2023-01-29T02:05:16.493Z,168.69
2023-01-29T02:06:16.471Z,168.66
2023-01-29T02:07:16.455Z,167.73
2023-01-29T02:08:16.461Z,168.86
2023-01-29T02:09:16.418Z,169.05
2023-01-29T02:10:16.621Z,169.56
2023-01-29T02:11:16.400Z,169.25
2023-01-29T02:12:16.356Z,168.77
2023-01-29T02:13:16.354Z,170.80
2023-01-29T02:14:16.315Z,167.51
2023-01-29T02:15:16.328Z,168.22
2023-01-29T02:16:16.305Z,171.63
2023-01-29T02:17:16.346Z,166.49
2023-01-29T02:18:16.288Z,167.79
2023-01-29T02:19:16.259Z,170.21
2023-01-29T02:20:16.616Z,167.63
2023-01-29T02:21:16.246Z,169.30
2023-01-29T02:22:16.204Z,168.15
2023-01-29T02:23:16.212Z,168.88
2023-01-29T02:24:16.308Z,168.78
2023-01-29T02:25:16.131Z,167.63
2023-01-29T02:26:16.126Z,167.16
2023-01-29T02:27:16.094Z,169.05
2023-01-29T02:28:16.112Z,167.86
2023-01-29T02:29:16.119Z,166.35
2023-01-29T02:30:16.358Z,164.52
2023-01-29T02:31:16.077Z,168.68
2023-01-29T02:32:16.035Z,166.50
2023-01-29T02:33:15.999Z,166.11
2023-01-29T02:34:16.017Z,169.21
2023-01-29T02:35:15.957Z,169.83
2023-01-29T02:36:15.953Z,166.75
2023-01-29T02:37:15.920Z,167.03
2023-01-29T02:38:15.896Z,169.95
2023-01-29T02:39:15.905Z,168.56
2023-01-29T02:40:16.216Z,169.06
2023-01-29T02:41:15.838Z,168.68
2023-01-29T02:42:15.832Z,165.15
2023-01-29T02:43:15.833Z,166.60
2023-01-29T02:44:15.796Z,164.78
2023-01-29T02:45:15.761Z,167.97
2023-01-29T02:46:15.754Z,167.99
2023-01-29T02:47:15.738Z,166.19
2023-01-29T02:48:15.684Z,167.15
2023-01-29T02:49:15.681Z,166.48
2023-01-29T02:50:15.978Z,167.92
2023-01-29T02:51:15.622Z,167.46
2023-01-29T02:52:15.591Z,167.28
2023-01-29T02:53:15.601Z,166.73
2023-01-29T02:54:15.574Z,166.33
2023-01-29T02:55:15.551Z,167.09
2023-01-29T02:56:15.512Z,165.30
2023-01-29T02:57:15.475Z,168.95
2023-01-29T02:58:15.431Z,169.31
2023-01-29T02:59:15.447Z,164.43
2023-01-29T09:23:11.335Z,159.21
2023-01-29T09:24:11.252Z,156.71
2023-01-29T09:25:11.248Z,161.31
2023-01-29T09:26:11.222Z,157.74
2023-01-29T09:27:11.156Z,155.69
2023-01-29T09:28:11.124Z,161.12
2023-01-29T09:29:11.096Z,154.05
2023-01-29T09:30:11.064Z,160.79
2023-01-29T09:31:11.049Z,161.63
2023-01-29T09:32:10.960Z,158.05
2023-01-29T09:33:10.924Z,159.88
2023-01-29T09:34:10.868Z,158.33
2023-01-29T09:35:10.815Z,157.81
2023-01-29T09:36:10.786Z,163.75
2023-01-29T09:37:10.754Z,161.48
2023-01-29T09:38:10.715Z,161.53
2023-01-29T09:39:10.677Z,160.02
2023-01-29T09:40:10.611Z,156.08
2023-01-29T09:41:10.593Z,160.79
2023-01-29T09:42:10.526Z,160.96
2023-01-29T09:43:10.507Z,163.19
2023-01-29T09:44:10.448Z,162.80
2023-01-29T09:45:10.424Z,161.99
2023-01-29T09:46:10.393Z,159.89
2023-01-29T09:47:10.344Z,162.27
2023-01-29T09:48:10.353Z,165.14
2023-01-29T09:49:10.296Z,164.83
2023-01-29T09:50:10.257Z,162.14
2023-01-29T09:51:10.225Z,164.21
2023-01-29T09:52:10.201Z,167.25
2023-01-29T09:53:10.982Z,168.57
2023-01-29T09:54:10.115Z,171.29
2023-01-29T09:55:10.044Z,167.35
2023-01-29T09:56:10.025Z,171.48
2023-01-29T09:57:09.996Z,166.31
2023-01-29T09:58:09.960Z,171.73
2023-01-29T09:59:09.902Z,174.63
2023-01-29T10:00:09.867Z,176.77
2023-01-29T10:01:10.021Z,172.40
2023-01-29T10:02:09.911Z,174.57
2023-01-29T10:03:09.786Z,171.14
2023-01-29T10:04:09.771Z,174.41
2023-01-29T10:05:09.672Z,176.16
2023-01-29T10:06:09.675Z,176.97
2023-01-29T10:07:09.601Z,174.50
2023-01-29T10:08:09.562Z,173.41
2023-01-29T10:09:09.501Z,175.64
2023-01-29T10:10:09.465Z,176.31
2023-01-29T10:11:09.461Z,177.28
2023-01-29T10:12:09.378Z,177.21
2023-01-29T10:13:09.311Z,176.92
2023-01-29T10:14:09.266Z,179.89
2023-01-29T10:15:09.209Z,177.92
2023-01-29T10:16:09.180Z,181.11
2023-01-29T10:17:09.179Z,181.28
2023-01-29T10:18:09.089Z,178.77
2023-01-29T10:19:09.043Z,177.88
2023-01-29T10:20:09.017Z,180.12
2023-01-29T10:21:08.935Z,179.96
2023-01-29T10:22:08.917Z,182.76
2023-01-29T10:23:08.872Z,181.64
2023-01-29T10:24:08.793Z,183.32
2023-01-29T10:25:08.755Z,181.36
2023-01-29T10:26:08.775Z,179.72
2023-01-29T10:27:08.688Z,182.04
2023-01-29T10:28:08.613Z,184.10
2023-01-29T10:29:08.567Z,184.38
2023-01-29T10:30:08.493Z,184.13
2023-01-29T10:31:08.533Z,182.17
2023-01-29T10:32:08.496Z,183.34
2023-01-29T10:33:08.367Z,184.48
2023-01-29T10:34:08.341Z,188.32
2023-01-29T10:35:08.273Z,187.66
2023-01-29T10:36:08.237Z,187.33
2023-01-29T10:37:08.188Z,186.85
2023-01-29T10:38:08.129Z,185.61
2023-01-29T10:39:08.094Z,190.69
2023-01-29T10:40:08.048Z,187.00
2023-01-29T10:41:08.012Z,187.28
2023-01-29T10:42:07.963Z,190.85
2023-01-29T10:43:07.918Z,189.90
2023-01-29T10:44:07.881Z,185.47
2023-01-29T10:45:07.796Z,188.73
2023-01-29T10:46:07.753Z,189.88
2023-01-29T10:47:07.780Z,189.16
2023-01-29T10:48:07.700Z,189.47
2023-01-29T10:49:07.624Z,191.54
2023-01-29T10:50:07.586Z,193.57
2023-01-29T10:51:07.564Z,189.60
2023-01-29T10:52:07.515Z,191.90
2023-01-29T10:53:07.423Z,193.37
2023-01-29T10:54:07.385Z,193.27
2023-01-29T10:55:07.325Z,194.39
2023-01-29T10:56:20.925Z,193.65
2023-01-29T10:57:08.229Z,193.81
2023-01-29T10:58:07.163Z,193.85
2023-01-29T10:59:07.142Z,189.98
2023-01-29T11:00:07.109Z,195.65
2023-01-29T11:01:07.007Z,195.20
2023-01-29T11:02:06.992Z,194.71
2023-01-29T11:03:12.544Z,196.29
2023-01-29T11:04:07.861Z,196.53
2023-01-29T11:05:07.994Z,196.56
2023-01-29T11:06:06.892Z,195.83
2023-01-29T11:07:06.830Z,194.75
2023-01-29T11:08:06.745Z,197.28
2023-01-29T11:09:06.703Z,196.68
2023-01-29T11:10:06.659Z,196.74
2023-01-29T11:11:06.583Z,196.16
2023-01-29T11:12:06.569Z,195.76
2023-01-29T11:13:06.546Z,196.60
2023-01-29T11:14:06.542Z,195.41
2023-01-29T11:15:06.578Z,195.77
2023-01-29T11:16:06.546Z,196.43
2023-01-29T11:17:06.602Z,196.99
2023-01-29T11:18:06.568Z,196.78
2023-01-29T11:19:06.541Z,199.56
2023-01-29T11:20:06.562Z,200.75
2023-01-29T11:21:06.534Z,197.83
2023-01-29T11:22:06.579Z,197.10
2023-01-29T11:23:07.681Z,196.28
2023-01-29T11:24:06.494Z,199.02
2023-01-29T11:25:06.478Z,199.29
2023-01-29T11:26:06.354Z,198.98
2023-01-29T11:33:06.086Z,201.58
2023-01-29T11:34:05.987Z,200.74
2023-01-29T11:35:05.947Z,199.41
2023-01-29T11:36:05.897Z,202.55
2023-01-29T11:37:05.839Z,201.94
2023-01-29T11:38:05.799Z,203.11
2023-01-29T11:39:05.704Z,202.66
2023-01-29T11:40:05.656Z,201.74
2023-01-29T11:41:05.588Z,200.83
2023-01-29T11:42:05.525Z,199.08
2023-01-29T11:43:05.469Z,202.74
2023-01-29T11:44:05.403Z,201.28
2023-01-29T14:04:56.502Z,247.54
2023-01-29T14:13:55.744Z,243.84
2023-01-29T14:14:55.704Z,244.82
2023-01-29T14:15:55.588Z,240.81
2023-01-29T14:16:55.488Z,239.31
2023-01-29T14:17:55.411Z,235.27
2023-01-29T15:31:51.608Z,162.70
2023-01-29T15:32:51.498Z,162.75
2023-01-29T15:33:51.510Z,163.29
2023-01-29T15:34:51.536Z,164.98
2023-01-29T15:35:53.735Z,161.53
2023-01-29T15:36:52.474Z,161.72
2023-01-29T15:37:51.433Z,162.01
2023-01-29T15:38:51.372Z,161.27
2023-01-29T15:39:53.102Z,162.89
2023-01-29T15:40:51.277Z,161.46
2023-01-29T15:41:51.243Z,159.94
2023-01-29T15:42:51.190Z,161.80
2023-01-29T15:43:51.132Z,159.79
2023-01-29T15:44:51.102Z,161.61
2023-01-29T15:45:51.033Z,159.37
2023-01-29T15:46:51.010Z,161.67
2023-01-29T15:47:50.972Z,155.90
2023-01-29T15:48:50.929Z,158.18
2023-01-29T15:49:50.879Z,156.17
2023-01-29T15:50:50.834Z,156.71
2023-01-29T15:51:50.797Z,155.99
2023-01-29T15:52:50.740Z,157.58
2023-01-29T15:53:50.706Z,158.52
2023-01-29T15:54:50.656Z,155.50
2023-01-29T15:55:50.724Z,159.02
2023-01-29T15:56:50.577Z,159.10
2023-01-29T15:57:50.541Z,157.87
2023-01-29T15:58:50.451Z,154.42
2023-01-29T15:59:50.428Z,154.90
2023-01-29T16:00:50.363Z,157.64
2023-01-29T16:01:50.429Z,157.70
2023-01-29T16:02:50.448Z,154.62
2023-01-29T16:03:50.245Z,155.16
2023-01-29T16:04:50.213Z,156.82
2023-01-29T16:05:50.216Z,155.17
2023-01-29T16:06:50.141Z,153.13
2023-01-29T16:07:50.099Z,156.09
2023-01-29T16:08:50.066Z,156.95
2023-01-29T16:09:50.044Z,154.16
2023-01-29T16:10:51.683Z,154.19
2023-01-29T16:11:49.967Z,156.09
2023-01-29T16:12:49.931Z,153.56
2023-01-29T16:13:49.863Z,154.81
2023-01-29T16:14:49.825Z,154.22
2023-01-29T16:15:49.828Z,157.40
2023-01-29T16:16:49.770Z,153.58
2023-01-29T16:17:49.725Z,153.60
2023-01-29T16:18:59.481Z,150.64
2023-01-29T16:20:49.612Z,151.68
2023-01-29T16:21:49.601Z,151.89
2023-01-29T16:22:49.527Z,152.28
2023-01-29T16:23:49.517Z,153.22
2023-01-29T16:24:49.458Z,152.47
2023-01-29T16:25:49.417Z,149.81
2023-01-29T16:26:49.480Z,152.29
2023-01-29T16:27:49.361Z,152.05
2023-01-29T16:28:49.295Z,146.09
2023-01-29T16:29:49.285Z,151.34
2023-01-29T16:30:49.277Z,147.10
2023-01-29T16:31:49.267Z,143.74
2023-01-29T16:32:49.156Z,148.83
2023-01-29T16:33:49.125Z,147.80
2023-01-29T16:34:49.089Z,149.95
2023-01-29T16:35:49.038Z,145.37
2023-01-29T16:36:49.007Z,151.57
2023-01-29T16:37:49.010Z,146.70
2023-01-29T16:38:48.975Z,152.64
2023-01-29T16:39:48.920Z,151.88
2023-01-29T16:40:48.879Z,149.99
2023-01-29T16:41:48.870Z,152.04
2023-01-29T16:42:48.846Z,153.98
2023-01-29T16:43:48.765Z,152.38
2023-01-29T16:44:48.724Z,153.00
2023-01-29T16:45:50.632Z,151.84
2023-01-29T16:46:48.703Z,157.02
2023-01-29T16:47:48.650Z,153.44
2023-01-29T16:48:48.584Z,152.55
2023-01-29T16:49:48.536Z,154.06
2023-01-29T17:45:46.639Z,147.87
2023-01-29T17:46:46.577Z,149.14
2023-01-29T17:47:46.511Z,148.64
2023-01-29T17:48:46.521Z,147.93
2023-01-29T17:49:46.435Z,146.94
2023-01-29T17:50:46.434Z,151.23
2023-01-29T17:51:46.375Z,148.47
2023-01-29T17:52:46.376Z,148.56
2023-01-29T17:53:47.310Z,148.75
2023-01-29T17:54:46.276Z,150.17
2023-01-29T17:55:46.247Z,147.21
2023-01-29T17:56:46.228Z,147.33
2023-01-29T17:57:46.195Z,149.53
2023-01-29T17:58:46.177Z,148.39
2023-01-29T17:59:46.143Z,149.18
2023-01-29T18:00:46.092Z,148.19
2023-01-29T18:01:46.063Z,147.02
2023-01-29T18:02:46.068Z,145.98
2023-01-29T18:03:46.062Z,149.43
2023-01-29T18:04:45.981Z,148.39
2023-01-29T18:05:45.917Z,149.24
2023-01-29T18:06:45.883Z,146.64
2023-01-29T18:07:45.872Z,149.37
2023-01-29T18:08:45.826Z,149.93
2023-01-29T18:09:45.771Z,146.52
2023-01-29T18:10:45.736Z,149.98
2023-01-29T18:11:45.702Z,147.88
2023-01-29T18:12:45.691Z,149.72
2023-01-29T18:13:45.665Z,149.22
2023-01-29T18:14:45.602Z,148.48
2023-01-29T18:15:45.561Z,144.92
2023-01-29T18:16:45.534Z,149.27
2023-01-29T18:17:45.513Z,154.73
2023-01-29T18:18:45.524Z,150.72
2023-01-29T18:19:45.439Z,148.69
2023-01-29T18:20:45.416Z,149.77
